sensor_id;sensor_type;location;lat;lon;timestamp;pressure;altitude;pressure_sealevel;temperature;humidity
75555;BME280;66087;53.126;17.960;2023-03-23T14:32:52;99794.92;;;15.28;58.69
75555;BME280;66087;53.126;17.960;2023-03-23T14:35:26;99790.38;;;15.18;58.93
75555;BME280;66087;53.126;17.960;2023-03-23T14:37:54;99786.85;;;15.08;59.21
75555;BME280;66087;53.126;17.960;2023-03-23T14:40:22;99786.15;;;14.99;59.28
75555;BME280;66087;53.126;17.960;2023-03-23T14:42:50;99785.72;;;14.91;59.61
75555;BME280;66087;53.126;17.960;2023-03-23T14:45:19;99791.02;;;14.88;59.85
75555;BME280;66087;53.126;17.960;2023-03-23T14:47:50;99785.66;;;14.87;59.82
75555;BME280;66087;53.126;17.960;2023-03-23T14:50:38;99775.89;;;14.85;60.18
75555;BME280;66087;53.126;17.960;2023-03-23T14:53:18;99780.47;;;14.82;60.00
75555;BME280;66087;53.126;17.960;2023-03-23T14:55:47;99785.98;;;14.78;60.24
75555;BME280;66087;53.126;17.960;2023-03-23T14:58:16;99778.04;;;14.77;60.24
75555;BME280;66087;53.126;17.960;2023-03-23T15:00:57;99788.56;;;14.74;60.46
75555;BME280;66087;53.126;17.960;2023-03-23T15:03:25;99787.16;;;14.71;60.65
75555;BME280;66087;53.126;17.960;2023-03-23T15:05:57;99788.52;;;14.69;60.60
75555;BME280;66087;53.126;17.960;2023-03-23T15:08:27;99786.65;;;14.66;60.92
75555;BME280;66087;53.126;17.960;2023-03-23T15:11:07;99785.49;;;14.66;60.86
75555;BME280;66087;53.126;17.960;2023-03-23T15:13:35;99783.27;;;14.67;60.97
75555;BME280;66087;53.126;17.960;2023-03-23T15:16:05;99769.89;;;14.65;61.02
75555;BME280;66087;53.126;17.960;2023-03-23T15:18:36;99756.43;;;14.64;61.09
75555;BME280;66087;53.126;17.960;2023-03-23T15:21:23;99756.95;;;14.61;61.21
75555;BME280;66087;53.126;17.960;2023-03-23T15:23:51;99756.05;;;14.60;61.35
75555;BME280;66087;53.126;17.960;2023-03-23T15:26:32;99756.83;;;14.62;61.51
75555;BME280;66087;53.126;17.960;2023-03-23T15:29:04;99767.41;;;14.67;61.31
75555;BME280;66087;53.126;17.960;2023-03-23T15:31:40;99768.77;;;14.75;61.27
75555;BME280;66087;53.126;17.960;2023-03-23T15:34:14;99758.76;;;14.94;60.98
75555;BME280;66087;53.126;17.960;2023-03-23T15:36:41;99751.53;;;15.12;60.66
75555;BME280;66087;53.126;17.960;2023-03-23T15:39:12;99767.42;;;15.05;60.60
75555;BME280;66087;53.126;17.960;2023-03-23T15:41:48;99771.83;;;14.83;60.87
75555;BME280;66087;53.126;17.960;2023-03-23T15:44:27;99780.29;;;14.67;61.30
75555;BME280;66087;53.126;17.960;2023-03-23T15:47:03;99786.29;;;14.52;61.71
75555;BME280;66087;53.126;17.960;2023-03-23T15:49:31;99786.66;;;14.37;61.83
75555;BME280;66087;53.126;17.960;2023-03-23T15:51:57;99795.02;;;14.27;62.30
75555;BME280;66087;53.126;17.960;2023-03-23T15:54:30;99807.52;;;14.19;62.48
75555;BME280;66087;53.126;17.960;2023-03-23T15:56:57;99807.51;;;14.12;62.90
75555;BME280;66087;53.126;17.960;2023-03-23T15:59:24;99805.34;;;14.06;63.04
75555;BME280;66087;53.126;17.960;2023-03-23T16:01:50;99799.16;;;14.02;63.29
75555;BME280;66087;53.126;17.960;2023-03-23T16:04:18;99789.44;;;14.00;63.18
75555;BME280;66087;53.126;17.960;2023-03-23T16:06:45;99793.08;;;13.96;63.30
75555;BME280;66087;53.126;17.960;2023-03-23T16:09:17;99806.77;;;13.96;63.65
75555;BME280;66087;53.126;17.960;2023-03-23T16:11:44;99800.20;;;13.92;64.00
75555;BME280;66087;53.126;17.960;2023-03-23T16:14:11;99807.87;;;13.86;63.96
75555;BME280;66087;53.126;17.960;2023-03-23T16:16:42;99812.94;;;13.79;64.18
75555;BME280;66087;53.126;17.960;2023-03-23T16:19:12;99812.05;;;13.75;64.41
75555;BME280;66087;53.126;17.960;2023-03-23T16:21:40;99805.05;;;13.72;63.88
75555;BME280;66087;53.126;17.960;2023-03-23T16:24:08;99805.80;;;13.69;64.35
75555;BME280;66087;53.126;17.960;2023-03-23T16:26:35;99795.19;;;13.66;64.35
75555;BME280;66087;53.126;17.960;2023-03-23T16:29:09;99794.97;;;13.64;64.62
75555;BME280;66087;53.126;17.960;2023-03-23T16:31:36;99795.71;;;13.61;65.13
75555;BME280;66087;53.126;17.960;2023-03-23T16:34:03;99812.72;;;13.55;65.36
75555;BME280;66087;53.126;17.960;2023-03-23T16:36:29;99831.76;;;13.50;65.69
75555;BME280;66087;53.126;17.960;2023-03-23T16:38:56;99830.51;;;13.39;66.01
75555;BME280;66087;53.126;17.960;2023-03-23T16:41:23;99830.17;;;13.22;66.99
75555;BME280;66087;53.126;17.960;2023-03-23T16:43:49;99819.23;;;13.08;67.07
75555;BME280;66087;53.126;17.960;2023-03-23T16:46:16;99822.87;;;13.00;67.71
75555;BME280;66087;53.126;17.960;2023-03-23T16:48:43;99821.23;;;12.97;67.40
75555;BME280;66087;53.126;17.960;2023-03-23T16:51:09;99814.29;;;13.04;67.39
75555;BME280;66087;53.126;17.960;2023-03-23T16:53:36;99811.86;;;13.09;67.68
75555;BME280;66087;53.126;17.960;2023-03-23T16:56:03;99817.48;;;13.04;67.91
75555;BME280;66087;53.126;17.960;2023-03-23T16:58:30;99816.30;;;12.96;68.04
75555;BME280;66087;53.126;17.960;2023-03-23T17:00:57;99813.60;;;12.88;68.30
75555;BME280;66087;53.126;17.960;2023-03-23T17:03:23;99813.67;;;12.82;68.43
75555;BME280;66087;53.126;17.960;2023-03-23T17:05:50;99806.60;;;12.73;68.72
75555;BME280;66087;53.126;17.960;2023-03-23T17:08:19;99808.86;;;12.68;68.97
75555;BME280;66087;53.126;17.960;2023-03-23T17:10:47;99816.74;;;12.63;69.15
75555;BME280;66087;53.126;17.960;2023-03-23T17:13:14;99817.38;;;12.58;69.32
75555;BME280;66087;53.126;17.960;2023-03-23T17:15:42;99823.70;;;12.54;69.50
75555;BME280;66087;53.126;17.960;2023-03-23T17:18:09;99827.41;;;12.50;69.76
75555;BME280;66087;53.126;17.960;2023-03-23T17:20:36;99820.89;;;12.47;69.59
75555;BME280;66087;53.126;17.960;2023-03-23T17:23:03;99826.55;;;12.45;69.75
75555;BME280;66087;53.126;17.960;2023-03-23T17:25:30;99826.52;;;12.44;69.92
75555;BME280;66087;53.126;17.960;2023-03-23T17:27:57;99834.13;;;12.45;69.93
75555;BME280;66087;53.126;17.960;2023-03-23T17:30:25;99835.64;;;12.44;69.48
75555;BME280;66087;53.126;17.960;2023-03-23T17:32:53;99832.45;;;12.44;69.54
75555;BME280;66087;53.126;17.960;2023-03-23T17:35:19;99830.27;;;12.44;69.75
75555;BME280;66087;53.126;17.960;2023-03-23T17:37:47;99820.77;;;12.44;69.67
75555;BME280;66087;53.126;17.960;2023-03-23T17:40:14;99826.88;;;12.45;69.54
75555;BME280;66087;53.126;17.960;2023-03-23T17:42:40;99827.27;;;12.45;69.54
75555;BME280;66087;53.126;17.960;2023-03-23T17:45:08;99827.94;;;12.44;69.61
75555;BME280;66087;53.126;17.960;2023-03-23T17:47:35;99826.66;;;12.42;69.54
75555;BME280;66087;53.126;17.960;2023-03-23T17:50:03;99831.84;;;12.38;69.77
75555;BME280;66087;53.126;17.960;2023-03-23T17:52:30;99840.70;;;12.37;69.52
75555;BME280;66087;53.126;17.960;2023-03-23T17:54:56;99849.34;;;12.34;69.52
75555;BME280;66087;53.126;17.960;2023-03-23T17:57:23;99850.18;;;12.32;69.57
75555;BME280;66087;53.126;17.960;2023-03-23T17:59:49;99848.68;;;12.28;69.76
75555;BME280;66087;53.126;17.960;2023-03-23T18:02:16;99839.75;;;12.23;69.75
75555;BME280;66087;53.126;17.960;2023-03-23T18:04:45;99837.84;;;12.22;69.66
75555;BME280;66087;53.126;17.960;2023-03-23T18:07:12;99839.03;;;12.21;69.84
75555;BME280;66087;53.126;17.960;2023-03-23T18:09:39;99842.53;;;12.17;69.80
75555;BME280;66087;53.126;17.960;2023-03-23T18:12:06;99849.70;;;12.14;69.91
75555;BME280;66087;53.126;17.960;2023-03-23T18:14:33;99854.46;;;12.11;69.95
75555;BME280;66087;53.126;17.960;2023-03-23T18:17:00;99860.44;;;12.07;70.15
75555;BME280;66087;53.126;17.960;2023-03-23T18:19:27;99866.98;;;12.04;70.30
75555;BME280;66087;53.126;17.960;2023-03-23T18:21:54;99865.27;;;12.05;70.20
75555;BME280;66087;53.126;17.960;2023-03-23T18:24:21;99870.09;;;12.02;70.23
75555;BME280;66087;53.126;17.960;2023-03-23T18:26:49;99867.24;;;11.99;70.37
75555;BME280;66087;53.126;17.960;2023-03-23T18:29:16;99871.79;;;11.97;70.24
75555;BME280;66087;53.126;17.960;2023-03-23T18:31:43;99872.77;;;11.98;70.43
75555;BME280;66087;53.126;17.960;2023-03-23T18:34:10;99871.84;;;12.01;70.33
75555;BME280;66087;53.126;17.960;2023-03-23T18:36:37;99872.29;;;12.02;70.38
75555;BME280;66087;53.126;17.960;2023-03-23T18:39:03;99871.02;;;12.02;70.51
75555;BME280;66087;53.126;17.960;2023-03-23T18:41:31;99872.45;;;12.03;70.20
75555;BME280;66087;53.126;17.960;2023-03-23T18:43:58;99869.77;;;12.05;70.40
75555;BME280;66087;53.126;17.960;2023-03-23T18:46:25;99860.21;;;12.06;70.24
75555;BME280;66087;53.126;17.960;2023-03-23T18:48:52;99861.25;;;12.08;70.36
75555;BME280;66087;53.126;17.960;2023-03-23T18:51:18;99857.32;;;12.12;70.38
75555;BME280;66087;53.126;17.960;2023-03-23T18:53:45;99857.01;;;12.14;70.30
75555;BME280;66087;53.126;17.960;2023-03-23T18:56:14;99861.25;;;12.18;70.29
75555;BME280;66087;53.126;17.960;2023-03-23T18:58:42;99873.13;;;12.22;70.32
75555;BME280;66087;53.126;17.960;2023-03-23T19:01:12;99921.44;;;12.26;70.19
75555;BME280;66087;53.126;17.960;2023-03-23T19:03:39;99944.92;;;12.29;70.62
75555;BME280;66087;53.126;17.960;2023-03-23T19:06:16;99952.31;;;12.30;70.92
75555;BME280;66087;53.126;17.960;2023-03-23T19:08:45;99954.84;;;12.21;71.25
75555;BME280;66087;53.126;17.960;2023-03-23T19:11:12;99950.21;;;12.12;71.10
75555;BME280;66087;53.126;17.960;2023-03-23T19:13:40;99937.23;;;12.03;71.15
75555;BME280;66087;53.126;17.960;2023-03-23T19:16:06;99946.71;;;11.96;71.12
75555;BME280;66087;53.126;17.960;2023-03-23T19:18:33;99948.05;;;11.90;71.17
75555;BME280;66087;53.126;17.960;2023-03-23T19:21:00;99937.27;;;11.86;71.03
75555;BME280;66087;53.126;17.960;2023-03-23T19:23:27;99923.55;;;11.82;71.02
75555;BME280;66087;53.126;17.960;2023-03-23T19:25:54;99924.34;;;11.78;71.12
75555;BME280;66087;53.126;17.960;2023-03-23T19:28:22;99945.85;;;11.75;71.16
75555;BME280;66087;53.126;17.960;2023-03-23T19:30:53;99938.34;;;11.73;71.34
75555;BME280;66087;53.126;17.960;2023-03-23T19:33:20;99936.59;;;11.72;71.31
75555;BME280;66087;53.126;17.960;2023-03-23T19:35:49;99928.54;;;11.71;71.65
75555;BME280;66087;53.126;17.960;2023-03-23T19:38:19;99921.27;;;11.68;71.63
75555;BME280;66087;53.126;17.960;2023-03-23T19:40:51;99919.58;;;11.65;72.01
75555;BME280;66087;53.126;17.960;2023-03-23T19:43:18;99925.17;;;11.60;72.43
75555;BME280;66087;53.126;17.960;2023-03-23T19:45:46;99931.23;;;11.54;72.59
75555;BME280;66087;53.126;17.960;2023-03-23T19:48:12;99938.52;;;11.47;72.69
75555;BME280;66087;53.126;17.960;2023-03-23T19:50:39;99933.52;;;11.42;72.88
75555;BME280;66087;53.126;17.960;2023-03-23T19:53:06;99935.98;;;11.37;73.05
75555;BME280;66087;53.126;17.960;2023-03-23T19:55:33;99949.08;;;11.33;73.45
75555;BME280;66087;53.126;17.960;2023-03-23T19:58:00;99951.17;;;11.28;73.81
75555;BME280;66087;53.126;17.960;2023-03-23T20:00:27;99944.55;;;11.22;74.03
75555;BME280;66087;53.126;17.960;2023-03-23T20:02:56;99941.58;;;11.15;74.25
75555;BME280;66087;53.126;17.960;2023-03-23T20:05:23;99937.38;;;11.06;74.46
75555;BME280;66087;53.126;17.960;2023-03-23T20:07:50;99942.65;;;10.97;74.50
75555;BME280;66087;53.126;17.960;2023-03-23T20:10:17;99942.54;;;10.87;74.80
75555;BME280;66087;53.126;17.960;2023-03-23T20:12:43;99948.51;;;10.74;75.08
75555;BME280;66087;53.126;17.960;2023-03-23T20:15:10;99950.60;;;10.65;75.76
75555;BME280;66087;53.126;17.960;2023-03-23T20:17:37;99953.17;;;10.55;75.89
75555;BME280;66087;53.126;17.960;2023-03-23T20:20:04;99951.80;;;10.47;76.03
75555;BME280;66087;53.126;17.960;2023-03-23T20:22:34;99943.64;;;10.41;76.29
75555;BME280;66087;53.126;17.960;2023-03-23T20:25:01;99950.29;;;10.39;76.50
75555;BME280;66087;53.126;17.960;2023-03-23T20:27:28;99957.61;;;10.38;76.52
75555;BME280;66087;53.126;17.960;2023-03-23T20:29:55;99970.94;;;10.39;76.56
75555;BME280;66087;53.126;17.960;2023-03-23T20:32:21;99987.75;;;10.41;76.51
75555;BME280;66087;53.126;17.960;2023-03-23T20:34:48;99993.48;;;10.45;76.64
75555;BME280;66087;53.126;17.960;2023-03-23T20:37:17;100000.38;;;10.49;77.11
75555;BME280;66087;53.126;17.960;2023-03-23T20:39:46;100000.23;;;10.49;77.31
75555;BME280;66087;53.126;17.960;2023-03-23T20:42:14;100001.98;;;10.48;77.03
75555;BME280;66087;53.126;17.960;2023-03-23T20:44:42;100005.82;;;10.49;77.34
75555;BME280;66087;53.126;17.960;2023-03-23T20:47:09;99999.30;;;10.49;77.40
75555;BME280;66087;53.126;17.960;2023-03-23T20:49:37;99984.07;;;10.46;77.28
75555;BME280;66087;53.126;17.960;2023-03-23T20:52:05;99985.89;;;10.44;77.36
75555;BME280;66087;53.126;17.960;2023-03-23T20:54:33;99986.64;;;10.42;77.61
75555;BME280;66087;53.126;17.960;2023-03-23T20:57:01;99981.67;;;10.39;77.70
75555;BME280;66087;53.126;17.960;2023-03-23T20:59:28;99979.71;;;10.38;77.32
75555;BME280;66087;53.126;17.960;2023-03-23T21:01:54;99992.83;;;10.40;77.34
75555;BME280;66087;53.126;17.960;2023-03-23T21:04:22;100004.98;;;10.41;77.48
75555;BME280;66087;53.126;17.960;2023-03-23T21:06:53;100001.63;;;10.42;77.33
75555;BME280;66087;53.126;17.960;2023-03-23T21:09:20;99991.74;;;10.43;77.46
75555;BME280;66087;53.126;17.960;2023-03-23T21:11:48;99986.46;;;10.43;77.45
75555;BME280;66087;53.126;17.960;2023-03-23T21:14:15;99983.83;;;10.43;77.38
75555;BME280;66087;53.126;17.960;2023-03-23T21:16:42;99988.19;;;10.42;77.47
75555;BME280;66087;53.126;17.960;2023-03-23T21:19:09;99991.35;;;10.40;77.53
75555;BME280;66087;53.126;17.960;2023-03-23T21:21:37;99987.63;;;10.39;77.48
75555;BME280;66087;53.126;17.960;2023-03-23T21:24:09;99986.45;;;10.40;77.33
75555;BME280;66087;53.126;17.960;2023-03-23T21:26:38;99989.92;;;10.41;77.43
75555;BME280;66087;53.126;17.960;2023-03-23T21:29:06;99985.72;;;10.39;77.42
75555;BME280;66087;53.126;17.960;2023-03-23T21:31:37;99994.25;;;10.42;77.69
75555;BME280;66087;53.126;17.960;2023-03-23T21:34:04;99995.53;;;10.40;77.56
75555;BME280;66087;53.126;17.960;2023-03-23T21:36:31;99999.65;;;10.40;77.75
75555;BME280;66087;53.126;17.960;2023-03-23T21:38:58;100002.79;;;10.38;77.66
75555;BME280;66087;53.126;17.960;2023-03-23T21:41:27;100013.09;;;10.37;77.76
75555;BME280;66087;53.126;17.960;2023-03-23T21:43:55;100017.98;;;10.36;77.59
75555;BME280;66087;53.126;17.960;2023-03-23T21:46:23;100018.03;;;10.38;77.72
75555;BME280;66087;53.126;17.960;2023-03-23T21:48:49;100007.59;;;10.39;77.58
75555;BME280;66087;53.126;17.960;2023-03-23T21:51:19;100018.85;;;10.42;77.45
75555;BME280;66087;53.126;17.960;2023-03-23T21:53:47;100056.63;;;10.45;77.55
75555;BME280;66087;53.126;17.960;2023-03-23T21:56:13;100040.11;;;10.48;77.56
75555;BME280;66087;53.126;17.960;2023-03-23T21:58:41;100018.86;;;10.49;77.42
75555;BME280;66087;53.126;17.960;2023-03-23T22:01:09;100025.20;;;10.51;77.52
75555;BME280;66087;53.126;17.960;2023-03-23T22:03:36;100017.73;;;10.51;77.49
75555;BME280;66087;53.126;17.960;2023-03-23T22:06:08;100009.31;;;10.50;77.41
75555;BME280;66087;53.126;17.960;2023-03-23T22:08:37;100009.35;;;10.48;77.48
75555;BME280;66087;53.126;17.960;2023-03-23T22:11:07;100007.45;;;10.42;77.53
75555;BME280;66087;53.126;17.960;2023-03-23T22:13:36;100005.48;;;10.36;77.79
75555;BME280;66087;53.126;17.960;2023-03-23T22:16:06;100004.20;;;10.28;78.01
75555;BME280;66087;53.126;17.960;2023-03-23T22:18:34;100008.47;;;10.20;77.97
75555;BME280;66087;53.126;17.960;2023-03-23T22:21:01;100010.50;;;10.16;78.17
75555;BME280;66087;53.126;17.960;2023-03-23T22:23:27;100006.52;;;10.13;78.26
75555;BME280;66087;53.126;17.960;2023-03-23T22:25:54;100004.45;;;10.12;78.33
75555;BME280;66087;53.126;17.960;2023-03-23T22:28:23;99997.77;;;10.12;78.23
75555;BME280;66087;53.126;17.960;2023-03-23T22:30:54;99990.05;;;10.13;78.35
75555;BME280;66087;53.126;17.960;2023-03-23T22:33:24;99999.14;;;10.13;78.35
75555;BME280;66087;53.126;17.960;2023-03-23T22:35:51;100000.54;;;10.09;78.35
75555;BME280;66087;53.126;17.960;2023-03-23T22:38:18;100010.48;;;10.05;78.79
75555;BME280;66087;53.126;17.960;2023-03-23T22:40:53;100016.07;;;10.01;78.78
75555;BME280;66087;53.126;17.960;2023-03-23T22:43:19;100016.00;;;9.97;78.84
75555;BME280;66087;53.126;17.960;2023-03-23T22:45:49;100014.27;;;9.94;78.83
75555;BME280;66087;53.126;17.960;2023-03-23T22:48:18;100007.09;;;9.92;78.78
75555;BME280;66087;53.126;17.960;2023-03-23T22:50:46;99992.61;;;9.87;78.89
75555;BME280;66087;53.126;17.960;2023-03-23T22:53:14;99991.28;;;9.80;78.99
75555;BME280;66087;53.126;17.960;2023-03-23T22:55:43;99981.73;;;9.73;79.22
75555;BME280;66087;53.126;17.960;2023-03-23T22:58:11;99988.83;;;9.67;79.35
75555;BME280;66087;53.126;17.960;2023-03-23T23:00:39;99993.66;;;9.62;79.33
75555;BME280;66087;53.126;17.960;2023-03-23T23:03:06;100003.50;;;9.58;79.45
75555;BME280;66087;53.126;17.960;2023-03-23T23:05:34;99995.22;;;9.53;79.51
75555;BME280;66087;53.126;17.960;2023-03-23T23:08:00;99992.52;;;9.48;79.66
75555;BME280;66087;53.126;17.960;2023-03-23T23:10:28;99990.12;;;9.43;79.75
75555;BME280;66087;53.126;17.960;2023-03-23T23:12:54;99984.59;;;9.41;79.80
75555;BME280;66087;53.126;17.960;2023-03-23T23:15:21;99988.90;;;9.39;79.80
75555;BME280;66087;53.126;17.960;2023-03-23T23:17:48;99988.41;;;9.36;79.93
75555;BME280;66087;53.126;17.960;2023-03-23T23:20:14;99980.22;;;9.34;80.11
75555;BME280;66087;53.126;17.960;2023-03-23T23:22:42;99980.16;;;9.29;80.20
75555;BME280;66087;53.126;17.960;2023-03-23T23:25:08;99978.77;;;9.25;80.18
75555;BME280;66087;53.126;17.960;2023-03-23T23:27:36;99981.48;;;9.20;80.33
75555;BME280;66087;53.126;17.960;2023-03-23T23:30:03;99980.23;;;9.16;80.21
75555;BME280;66087;53.126;17.960;2023-03-23T23:32:32;99984.13;;;9.15;80.64
75555;BME280;66087;53.126;17.960;2023-03-23T23:34:59;99989.10;;;9.15;80.60
75555;BME280;66087;53.126;17.960;2023-03-23T23:37:25;99993.13;;;9.15;80.49
75555;BME280;66087;53.126;17.960;2023-03-23T23:39:52;99988.02;;;9.15;80.35
75555;BME280;66087;53.126;17.960;2023-03-23T23:42:18;99980.89;;;9.15;80.35
75555;BME280;66087;53.126;17.960;2023-03-23T23:44:45;99977.52;;;9.12;80.45
75555;BME280;66087;53.126;17.960;2023-03-23T23:47:12;99978.27;;;9.10;80.94
75555;BME280;66087;53.126;17.960;2023-03-23T23:49:39;99971.57;;;9.02;81.10
75555;BME280;66087;53.126;17.960;2023-03-23T23:52:07;99977.73;;;9.01;81.35
75555;BME280;66087;53.126;17.960;2023-03-23T23:54:34;99972.02;;;8.94;81.19
75555;BME280;66087;53.126;17.960;2023-03-23T23:57:03;99967.63;;;8.88;81.17
75555;BME280;66087;53.126;17.960;2023-03-23T23:59:31;99963.14;;;8.83;81.28
